createdAt,value
2022-12-15T00:02:22.510Z,-0.78
2022-12-15T00:05:49.971Z,-0.81
2022-12-15T00:09:14.209Z,-0.59
2022-12-15T00:12:35.463Z,-0.48
2022-12-15T00:15:59.694Z,-0.46
2022-12-15T00:19:22.825Z,-0.38
2022-12-15T00:22:46.345Z,-0.40
2022-12-15T00:26:10.038Z,-0.44
2022-12-15T00:29:33.062Z,-0.39
2022-12-15T00:32:55.769Z,-0.43
2022-12-15T00:36:18.649Z,-0.50
2022-12-15T00:39:24.350Z,-0.44
2022-12-15T00:42:30.098Z,-0.32
2022-12-15T00:45:37.712Z,-0.42
2022-12-15T00:48:42.546Z,-0.49
2022-12-15T00:52:05.324Z,-0.47
2022-12-15T00:55:28.168Z,-0.43
2022-12-15T00:58:51.778Z,-0.47
2022-12-15T01:02:08.440Z,-0.47
2022-12-15T01:05:31.793Z,-0.58
2022-12-15T01:08:55.457Z,-0.58
2022-12-15T01:12:19.474Z,-0.67
2022-12-15T01:15:43.776Z,-0.70
2022-12-15T01:19:06.888Z,-0.73
2022-12-15T01:22:12.820Z,-0.73
2022-12-15T01:25:19.592Z,-0.71
2022-12-15T01:28:24.345Z,-0.60
2022-12-15T01:31:30.206Z,-0.55
2022-12-15T01:34:35.628Z,-0.62
2022-12-15T01:37:40.892Z,-0.72
2022-12-15T01:40:56.591Z,-0.64
2022-12-15T01:44:02.464Z,-0.60
2022-12-15T01:47:08.821Z,-0.64
2022-12-15T01:50:13.708Z,-0.69
2022-12-15T01:53:18.704Z,-0.73
2022-12-15T01:56:23.732Z,-0.67
2022-12-15T01:59:36.894Z,-0.66
2022-12-15T02:02:43.833Z,-0.54
2022-12-15T02:05:50.555Z,-0.48
2022-12-15T02:08:58.992Z,-0.54
2022-12-15T02:12:33.744Z,-0.58
2022-12-15T02:15:57.905Z,-0.54
2022-12-15T02:19:43.126Z,-0.57
2022-12-15T02:23:31.806Z,-0.44
2022-12-15T02:27:08.411Z,-0.58
2022-12-15T02:30:35.373Z,-0.48
2022-12-15T02:33:41.693Z,-0.58
2022-12-15T02:36:55.464Z,-0.51
2022-12-15T02:39:59.905Z,-0.46
2022-12-15T02:43:08.366Z,-0.40
2022-12-15T02:46:21.853Z,-0.27
2022-12-15T02:49:49.921Z,-0.16
2022-12-15T02:53:30.627Z,-0.13
2022-12-15T02:56:58.601Z,-0.35
2022-12-15T03:00:16.268Z,-0.49
2022-12-15T03:03:23.674Z,-0.57
2022-12-15T03:06:22.102Z,-0.46
2022-12-15T03:09:28.162Z,-0.56
2022-12-15T03:12:33.954Z,-0.50
2022-12-15T03:15:39.445Z,-0.63
2022-12-15T03:18:40.110Z,-0.75
2022-12-15T03:21:45.118Z,-0.74
2022-12-15T03:24:50.682Z,-0.57
2022-12-15T03:27:56.265Z,-0.47
2022-12-15T03:31:03.229Z,-0.37
2022-12-15T03:34:08.985Z,-0.39
2022-12-15T03:37:15.487Z,-0.58
2022-12-15T03:40:21.508Z,-0.46
2022-12-15T03:43:26.579Z,-0.35
2022-12-15T03:46:31.767Z,-0.54
2022-12-15T03:49:30.810Z,-0.54
2022-12-15T03:52:16.432Z,-0.49
2022-12-15T03:55:08.919Z,-0.55
2022-12-15T03:58:02.789Z,-0.62
2022-12-15T04:01:07.611Z,-0.63
2022-12-15T04:04:13.076Z,-0.46
2022-12-15T04:07:17.944Z,-0.48
2022-12-15T04:10:26.317Z,-0.47
2022-12-15T04:13:31.451Z,-0.39
2022-12-15T04:16:37.613Z,-0.50
2022-12-15T04:20:00.771Z,-0.61
2022-12-15T04:23:05.964Z,-0.71
2022-12-15T04:26:30.562Z,-0.77
2022-12-15T04:29:54.406Z,-0.55
2022-12-15T04:33:18.374Z,-0.58
2022-12-15T04:36:42.074Z,-0.62
2022-12-15T04:40:05.960Z,-0.53
2022-12-15T04:43:29.384Z,-0.46
2022-12-15T04:46:52.219Z,-0.46
2022-12-15T04:50:15.552Z,-0.33
2022-12-15T04:53:48.875Z,-0.49
2022-12-15T04:57:12.740Z,-0.46
2022-12-15T05:00:38.690Z,-0.54
2022-12-15T05:04:02.832Z,-0.45
2022-12-15T05:07:26.421Z,-0.41
2022-12-15T05:10:50.951Z,-0.40
2022-12-15T05:14:14.566Z,-0.30
2022-12-15T05:17:41.383Z,-0.31
2022-12-15T05:21:03.908Z,-0.35
2022-12-15T05:24:27.622Z,-0.30
2022-12-15T05:27:51.447Z,-0.29
2022-12-15T05:31:15.907Z,-0.37
2022-12-15T05:34:21.338Z,-0.25
2022-12-15T05:37:26.910Z,-0.15
2022-12-15T05:40:26.608Z,-0.12
2022-12-15T05:43:32.892Z,-0.21
2022-12-15T05:46:38.749Z,-0.23
2022-12-15T05:49:44.859Z,-0.16
2022-12-15T05:52:50.495Z,-0.04
2022-12-15T05:55:56.001Z,-0.10
2022-12-15T05:59:02.022Z,-0.14
2022-12-15T06:02:08.417Z,-0.08
2022-12-15T06:05:13.942Z,-0.09
2022-12-15T06:08:20.391Z,-0.03
2022-12-15T06:11:29.377Z,0.05
2022-12-15T06:14:34.512Z,0.02
2022-12-15T06:17:39.647Z,0.04
2022-12-15T06:20:45.328Z,0.06
2022-12-15T06:23:52.433Z,0.09
2022-12-15T06:26:58.063Z,0.15
2022-12-15T06:30:04.694Z,0.15
2022-12-15T06:33:10.417Z,0.22
2022-12-15T06:36:25.363Z,0.32
2022-12-15T06:39:30.697Z,0.34
2022-12-15T06:42:36.711Z,0.21
2022-12-15T06:45:42.205Z,0.22
2022-12-15T06:48:48.605Z,0.05
2022-12-15T06:51:54.620Z,0.02
2022-12-15T06:55:00.538Z,0.15
2022-12-15T06:58:05.437Z,0.21
2022-12-15T07:01:10.811Z,0.30
2022-12-15T07:04:17.710Z,0.27
2022-12-15T07:07:24.945Z,0.34
2022-12-15T07:10:30.946Z,0.39
2022-12-15T07:13:36.043Z,0.37
2022-12-15T07:16:42.229Z,0.42
2022-12-15T07:19:47.968Z,0.32
2022-12-15T07:22:53.891Z,0.45
2022-12-15T07:25:59.375Z,0.40
2022-12-15T07:29:05.280Z,0.46
2022-12-15T07:32:10.278Z,0.50
2022-12-15T07:35:16.803Z,0.46
2022-12-15T07:38:23.086Z,0.53
2022-12-15T07:41:30.264Z,0.52
2022-12-15T07:44:35.332Z,0.57
2022-12-15T07:47:41.151Z,0.69
2022-12-15T07:50:48.219Z,0.75
2022-12-15T07:53:56.638Z,0.78
2022-12-15T07:57:03.273Z,0.66
2022-12-15T08:00:11.596Z,0.59
2022-12-15T08:03:17.412Z,0.66
2022-12-15T08:06:23.968Z,0.66
2022-12-15T08:09:24.005Z,0.63
2022-12-15T08:12:29.129Z,0.61
2022-12-15T08:15:34.243Z,0.64
2022-12-15T08:18:40.426Z,0.81
2022-12-15T08:21:46.109Z,0.81
2022-12-15T08:24:52.889Z,0.86
2022-12-15T08:28:00.405Z,0.88
2022-12-15T08:31:07.055Z,0.85
2022-12-15T08:34:16.231Z,0.84
2022-12-15T08:37:21.687Z,0.87
2022-12-15T08:40:27.415Z,0.86
2022-12-15T08:43:33.611Z,0.82
2022-12-15T08:46:44.779Z,1.04
2022-12-15T08:49:51.586Z,1.06
2022-12-15T08:53:29.126Z,1.25
2022-12-15T08:56:04.086Z,1.21
2022-12-15T08:59:14.585Z,1.26
2022-12-15T09:02:19.649Z,0.99
2022-12-15T09:05:24.954Z,1.15
2022-12-15T09:08:30.931Z,1.11
2022-12-15T09:11:36.434Z,1.13
2022-12-15T09:14:42.585Z,1.20
2022-12-15T09:17:48.354Z,1.32
2022-12-15T09:20:53.253Z,1.43
2022-12-15T09:24:04.961Z,1.42
2022-12-15T09:27:10.316Z,1.28
2022-12-15T09:30:16.347Z,1.34
2022-12-15T09:33:21.877Z,1.54
2022-12-15T09:36:27.276Z,1.61
2022-12-15T09:39:32.855Z,1.50
2022-12-15T09:42:43.817Z,1.53
2022-12-15T09:45:53.902Z,1.73
2022-12-15T09:48:52.784Z,1.57
2022-12-15T09:52:26.188Z,1.50
2022-12-15T09:55:40.806Z,1.52
2022-12-15T09:59:12.502Z,1.46
2022-12-15T10:03:03.283Z,1.47
2022-12-15T10:06:29.816Z,1.48
2022-12-15T10:09:37.829Z,1.65
2022-12-15T10:12:59.098Z,1.62
2022-12-15T10:16:04.740Z,1.79
2022-12-15T10:19:17.836Z,1.75
2022-12-15T10:22:30.945Z,1.85
2022-12-15T10:25:39.967Z,1.83
2022-12-15T10:29:15.838Z,1.92
2022-12-15T10:32:39.321Z,1.81
2022-12-15T10:35:42.501Z,1.83
2022-12-15T10:38:54.170Z,1.89
2022-12-15T10:42:00.482Z,2.00
2022-12-15T10:45:13.417Z,2.00
2022-12-15T10:48:19.000Z,1.95
2022-12-15T10:51:33.365Z,1.85
2022-12-15T10:54:37.809Z,1.89
2022-12-15T10:57:44.667Z,1.86
2022-12-15T11:00:52.885Z,1.92
2022-12-15T11:03:59.811Z,2.07
2022-12-15T11:07:09.184Z,2.14
2022-12-15T11:10:16.066Z,2.15
2022-12-15T11:13:33.203Z,2.13
2022-12-15T11:16:29.590Z,2.08
2022-12-15T11:19:32.582Z,1.96
2022-12-15T11:23:02.933Z,2.05
2022-12-15T11:26:17.447Z,1.97
2022-12-15T11:29:42.047Z,2.13
2022-12-15T11:32:49.499Z,2.16
2022-12-15T11:36:22.350Z,2.18
2022-12-15T11:39:34.923Z,2.24
2022-12-15T11:43:08.273Z,2.20
2022-12-15T11:46:33.110Z,2.19
2022-12-15T11:50:03.944Z,2.22
2022-12-15T11:53:49.333Z,2.25
2022-12-15T11:56:54.460Z,2.18
2022-12-15T12:00:13.350Z,2.11
2022-12-15T12:03:41.824Z,2.14
2022-12-15T12:07:13.166Z,2.27
2022-12-15T12:10:57.333Z,2.32
2022-12-15T12:14:22.667Z,2.54
2022-12-15T12:17:32.318Z,2.52
2022-12-15T12:20:40.044Z,2.55
2022-12-15T12:24:02.806Z,2.49
2022-12-15T12:27:18.649Z,2.39
2022-12-15T12:30:31.703Z,2.32
2022-12-15T12:33:59.886Z,2.37
2022-12-15T12:37:06.543Z,2.33
2022-12-15T12:40:15.305Z,3.93
2022-12-15T12:43:22.882Z,3.23
2022-12-15T12:46:50.694Z,3.86
2022-12-15T12:50:03.473Z,3.90
2022-12-15T12:53:14.860Z,3.64
2022-12-15T12:56:13.770Z,3.78
2022-12-15T12:59:22.905Z,3.77
2022-12-15T13:02:41.009Z,3.75
2022-12-15T13:05:50.512Z,3.79
2022-12-15T13:09:00.454Z,3.82
2022-12-15T13:12:27.568Z,3.90
2022-12-15T13:15:21.467Z,4.10
2022-12-15T13:18:35.941Z,4.09
2022-12-15T13:22:06.350Z,4.10
2022-12-15T13:25:13.130Z,4.18
2022-12-15T13:28:35.522Z,4.12
2022-12-15T13:31:42.769Z,3.95
2022-12-15T13:34:52.327Z,3.81
2022-12-15T13:38:08.875Z,3.93
2022-12-15T13:41:14.242Z,3.80
2022-12-15T13:44:43.353Z,3.77
2022-12-15T13:47:49.202Z,3.98
2022-12-15T13:51:31.933Z,3.99
2022-12-15T13:54:44.261Z,3.93
2022-12-15T13:57:53.611Z,3.93
2022-12-15T14:01:00.392Z,4.06
2022-12-15T14:03:53.293Z,4.02
2022-12-15T14:07:15.223Z,4.14
2022-12-15T14:10:21.748Z,4.16
2022-12-15T14:13:34.752Z,4.06
2022-12-15T14:16:40.904Z,4.17
2022-12-15T14:19:51.155Z,4.14
2022-12-15T14:22:57.644Z,3.83
2022-12-15T14:26:10.071Z,3.79
2022-12-15T14:29:19.153Z,3.93
2022-12-15T14:32:25.665Z,3.90
2022-12-15T14:35:41.946Z,4.17
2022-12-15T14:39:03.618Z,3.95
2022-12-15T14:42:09.208Z,4.04
2022-12-15T14:45:07.150Z,3.99
2022-12-15T14:51:15.657Z,4.05
2022-12-15T14:54:20.239Z,4.14
2022-12-15T14:57:32.968Z,3.98
2022-12-15T15:00:49.903Z,3.75
2022-12-15T15:03:55.950Z,3.88
2022-12-15T15:07:06.686Z,4.01
2022-12-15T15:10:18.726Z,4.08
2022-12-15T15:13:39.965Z,4.17
2022-12-15T15:16:45.124Z,4.21
2022-12-15T15:19:52.711Z,4.16
2022-12-15T15:22:58.529Z,4.09
2022-12-15T15:26:09.142Z,4.13
2022-12-15T15:29:14.188Z,4.21
2022-12-15T15:32:27.591Z,4.17
2022-12-15T15:35:33.312Z,4.12
2022-12-15T15:38:45.390Z,4.14
2022-12-15T15:41:50.565Z,3.96
2022-12-15T15:44:57.141Z,3.85
2022-12-15T15:48:04.993Z,3.90
2022-12-15T15:51:10.782Z,3.92
2022-12-15T15:54:21.385Z,4.06
2022-12-15T15:57:30.014Z,3.93
2022-12-15T16:00:36.104Z,3.71
2022-12-15T16:03:43.220Z,3.94
2022-12-15T16:06:49.118Z,3.89
2022-12-15T16:09:55.017Z,3.75
2022-12-15T16:13:00.458Z,3.87
2022-12-15T16:15:53.405Z,3.90
2022-12-15T16:18:59.874Z,3.77
2022-12-15T16:22:06.043Z,3.77
2022-12-15T16:25:12.581Z,3.90
2022-12-15T16:28:18.058Z,3.65
2022-12-15T16:31:29.112Z,3.71
2022-12-15T16:34:33.764Z,3.63
2022-12-15T16:37:43.176Z,3.76
2022-12-15T16:40:51.761Z,3.71
2022-12-15T16:43:57.890Z,3.71
2022-12-15T16:47:02.538Z,3.56
2022-12-15T16:50:08.504Z,3.75
2022-12-15T16:53:14.866Z,3.60
2022-12-15T16:56:21.144Z,3.57
2022-12-15T16:59:34.884Z,3.63
2022-12-15T17:02:42.358Z,3.71
2022-12-15T17:05:49.576Z,3.65
2022-12-15T17:09:05.109Z,3.73
2022-12-15T17:12:11.115Z,3.87
2022-12-15T17:15:16.412Z,3.77
2022-12-15T17:18:21.827Z,3.74
2022-12-15T17:21:28.445Z,3.81
2022-12-15T17:24:34.626Z,3.32
2022-12-15T17:27:41.297Z,3.48
2022-12-15T17:30:46.741Z,3.59
2022-12-15T17:33:52.396Z,3.75
2022-12-15T17:36:58.472Z,3.71
2022-12-15T17:40:04.778Z,3.39
2022-12-15T17:43:10.647Z,3.41
2022-12-15T17:46:16.383Z,3.48
2022-12-15T17:49:22.691Z,3.46
2022-12-15T17:52:43.948Z,3.36
2022-12-15T17:55:48.646Z,3.27
2022-12-15T17:58:54.173Z,3.25
2022-12-15T18:02:02.034Z,3.28
2022-12-15T18:05:08.169Z,3.24
2022-12-15T18:08:16.685Z,3.59
2022-12-15T18:11:25.743Z,3.46
2022-12-15T18:14:33.342Z,3.41
2022-12-15T18:17:57.673Z,3.37
2022-12-15T18:21:02.695Z,3.22
2022-12-15T18:24:07.913Z,3.05
2022-12-15T18:27:12.806Z,3.06
2022-12-15T18:30:18.552Z,3.13
2022-12-15T18:33:24.029Z,3.19
2022-12-15T18:36:23.559Z,3.23
2022-12-15T18:39:19.863Z,3.30
2022-12-15T18:42:16.138Z,3.34
2022-12-15T18:45:04.429Z,3.41
2022-12-15T18:47:57.687Z,3.44
2022-12-15T18:50:44.188Z,3.51
2022-12-15T18:53:43.838Z,3.39
2022-12-15T18:56:37.118Z,3.50
2022-12-15T18:59:42.588Z,3.62
2022-12-15T19:02:48.429Z,3.67
2022-12-15T19:05:53.122Z,3.62
2022-12-15T19:08:58.872Z,3.61
2022-12-15T19:12:21.679Z,3.64
2022-12-15T19:15:31.194Z,3.79
2022-12-15T19:18:55.864Z,3.46
2022-12-15T19:22:18.692Z,3.35
2022-12-15T19:25:30.026Z,3.43
2022-12-15T19:28:37.966Z,3.58
2022-12-15T19:31:43.323Z,3.61
2022-12-15T19:34:48.856Z,3.53
2022-12-15T19:37:55.915Z,3.79
2022-12-15T19:41:01.664Z,3.65
2022-12-15T19:44:07.799Z,3.61
2022-12-15T19:47:13.301Z,3.58
2022-12-15T19:50:19.023Z,3.52
2022-12-15T19:53:33.894Z,3.55
2022-12-15T19:56:39.518Z,3.64
2022-12-15T19:59:44.733Z,3.82
2022-12-15T20:02:51.481Z,3.89
2022-12-15T20:05:56.693Z,3.86
2022-12-15T20:09:03.946Z,3.85
2022-12-15T20:12:09.496Z,3.83
2022-12-15T20:15:15.729Z,3.99
2022-12-15T20:18:21.426Z,4.10
2022-12-15T20:21:27.275Z,4.14
2022-12-15T20:24:32.981Z,4.22
2022-12-15T20:27:38.531Z,4.09
2022-12-15T20:30:47.009Z,4.15
2022-12-15T20:33:53.008Z,4.07
2022-12-15T20:36:59.127Z,4.12
2022-12-15T20:40:04.497Z,4.10
2022-12-15T20:43:10.709Z,4.10
2022-12-15T20:46:28.521Z,3.97
2022-12-15T20:49:37.748Z,4.04
2022-12-15T20:52:43.888Z,4.20
2022-12-15T20:55:49.353Z,4.23
2022-12-15T20:58:55.684Z,4.30
2022-12-15T21:02:01.428Z,4.41
2022-12-15T21:05:10.672Z,4.13
2022-12-15T21:08:16.245Z,4.14
2022-12-15T21:11:36.075Z,4.41
2022-12-15T21:14:41.817Z,4.40
2022-12-15T21:17:42.126Z,4.45
2022-12-15T21:20:48.270Z,4.43
2022-12-15T21:23:53.620Z,4.49
2022-12-15T21:26:59.774Z,4.28
2022-12-15T21:30:05.683Z,4.24
2022-12-15T21:33:11.482Z,4.18
2022-12-15T21:36:17.524Z,4.04
2022-12-15T21:39:22.835Z,4.10
2022-12-15T21:42:31.235Z,4.02
2022-12-15T21:45:38.056Z,3.85
2022-12-15T21:49:02.009Z,3.76
2022-12-15T21:52:12.608Z,3.91
2022-12-15T21:55:20.333Z,4.21
2022-12-15T21:58:37.090Z,4.05
2022-12-15T22:01:44.444Z,4.12
2022-12-15T22:04:49.807Z,4.17
2022-12-15T22:07:56.723Z,4.48
2022-12-15T22:11:04.489Z,4.65
2022-12-15T22:14:11.194Z,4.79
2022-12-15T22:17:20.740Z,4.76
2022-12-15T22:20:32.249Z,4.80
2022-12-15T22:23:38.009Z,4.82
2022-12-15T22:26:44.170Z,5.03
2022-12-15T22:29:48.665Z,4.86
2022-12-15T22:32:54.326Z,4.86
2022-12-15T22:36:00.352Z,4.81
2022-12-15T22:39:08.280Z,4.99
2022-12-15T22:42:12.002Z,5.08
2022-12-15T22:45:20.774Z,4.97
2022-12-15T22:48:28.673Z,4.93
2022-12-15T22:51:34.354Z,4.94
2022-12-15T22:54:45.611Z,5.15
2022-12-15T22:57:49.597Z,5.02
2022-12-15T23:00:56.437Z,5.09
2022-12-15T23:04:02.311Z,5.16
2022-12-15T23:07:07.162Z,5.15
2022-12-15T23:10:24.270Z,5.09
2022-12-15T23:13:10.588Z,4.79
2022-12-15T23:16:21.150Z,4.83
2022-12-15T23:19:33.209Z,4.91
2022-12-15T23:22:39.533Z,4.90
2022-12-15T23:25:44.421Z,4.85
2022-12-15T23:28:49.923Z,5.00
2022-12-15T23:31:57.546Z,5.08
2022-12-15T23:35:03.493Z,5.03
2022-12-15T23:38:09.311Z,4.91
2022-12-15T23:41:15.902Z,4.91
2022-12-15T23:44:21.239Z,4.92
2022-12-15T23:47:26.931Z,4.91
2022-12-15T23:50:33.400Z,4.81
2022-12-15T23:53:39.678Z,4.91
2022-12-15T23:56:45.473Z,4.90
2022-12-15T23:59:51.555Z,4.76
